TimeMDT,TemperatureF,Dew PointF,Humidity,Sea Level PressureIn,VisibilityMPH,Wind Direction,Wind SpeedMPH,Gust SpeedMPH,PrecipitationIn,Events,Conditions,WindDirDegrees,DateUTC
12:53 AM,46.9,21.0,36,29.95,10.0,West,12.7,-,N/A,,Clear,280,2012-10-09 06:53:00
1:53 AM,46.0,21.9,39,29.96,10.0,West,12.7,-,N/A,,Clear,260,2012-10-09 07:53:00
2:53 AM,46.0,21.0,37,30.12,10.0,West,11.5,-,N/A,,Clear,260,2012-10-09 08:53:00
3:53 AM,44.1,21.0,40,29.91,10.0,West,11.5,-,N/A,,Clear,270,2012-10-09 09:53:00
4:53 AM,42.1,21.0,43,29.92,10.0,West,11.5,-,N/A,,Clear,270,2012-10-09 10:53:00
5:53 AM,39.9,21.0,47,29.94,10.0,WNW,11.5,-,N/A,,Clear,290,2012-10-09 11:53:00
6:53 AM,42.1,21.0,43,29.97,10.0,WNW,11.5,-,N/A,,Clear,290,2012-10-09 12:53:00
7:53 AM,46.0,21.9,39,29.99,10.0,West,9.2,-,N/A,,Clear,280,2012-10-09 13:53:00
8:53 AM,55.0,24.1,30,29.99,10.0,WNW,9.2,-,N/A,,Clear,290,2012-10-09 14:53:00
10:53 AM,64.0,30.0,28,29.97,10.0,WNW,16.1,25.3,N/A,,Unknown,300,2012-10-09 16:53:00
11:53 AM,68.0,28.9,23,29.94,10.0,WNW,16.1,25.3,N/A,,Clear,300,2012-10-09 17:53:00
12:53 PM,70.0,27.0,20,29.93,10.0,WNW,26.5,34.5,N/A,,Clear,300,2012-10-09 18:53:00
2:53 PM,71.1,21.9,16,29.91,10.0,NW,21.9,32.2,N/A,,Clear,320,2012-10-09 20:53:00
3:53 PM,71.1,25.0,18,29.91,10.0,West,17.3,26.5,N/A,,Clear,280,2012-10-09 21:53:00
4:53 PM,70.0,26.1,19,29.91,10.0,West,17.3,25.3,N/A,,Clear,260,2012-10-09 22:53:00
5:53 PM,68.0,26.1,21,29.94,10.0,West,12.7,-,N/A,,Clear,270,2012-10-09 23:53:00
6:53 PM,57.9,27.0,31,30.00,10.0,West,11.5,-,N/A,,Clear,260,2012-10-10 00:53:00
7:53 PM,57.0,27.0,32,30.03,10.0,WNW,5.8,-,N/A,,Clear,300,2012-10-10 01:53:00
8:53 PM,53.1,25.0,34,30.04,10.0,West,5.8,-,N/A,,Clear,280,2012-10-10 02:53:00
9:53 PM,57.0,21.9,26,30.00,10.0,North,5.8,-,N/A,,Clear,350,2012-10-10 03:53:00
10:53 PM,51.1,24.1,35,30.02,10.0,SW,5.8,-,N/A,,Clear,230,2012-10-10 04:53:00
11:36 PM,48.2,28.4,46,30.25,10.0,East,12.7,-,N/A,,Clear,80,2012-10-10 05:36:00
11:53 PM,46.9,28.9,50,30.05,10.0,East,13.8,-,N/A,,Clear,80,2012-10-10 05:53:00